Port Orford, OR

3:23 PM PST on February 26, 2015 (GMT -0800)
North Bend | Change Station
CLOSE
Current Station
Airport
Location: North Bend,
Elevation: 16 ft
Nearby Weather Stations

Elev 16 ft 43.42 °N, 124.25 °W | Updated 8 minutes ago

Rain
Rain
54 °F
Feels Like 54 °F
N
4
Wind Variable Wind from South

Today
High -- | Low -- °F
--% Chance of Precip.
Yesterday
High -- | Low -- °F
Precip. -- in
6:58 AM 6:03 PM
Waxing Gibbous, 63% visible
Pressure 30.12 in
Visibility 9.0 miles
Clouds Overcast 800 ft
Dew Point 52 °F
Humidity 94%
Rainfall 0.28 in
Snow Depth Not available.
UV 1 out of 12
Pollen 5.60 out of 12
Air Quality Not available.
Flu Activity Not available.
METAR KOTH 262315Z 19003KT 9SM OVC008 12/11 A3012 RMK AO1 -RA P0002

More Conditions Fewer Conditions

Pressure 30.12 in
Visibility 9.0 miles
Clouds Overcast 800 ft
Dew Point 52 °F
Humidity 94%
Rainfall 0.28 in
Snow Depth Not available.
UV 1 out of 12
Pollen 5.60 out of 12
Air Quality Not available.
Flu Activity Not available.
METAR KOTH 262315Z 19003KT 9SM OVC008 12/11 A3012 RMK AO1 -RA P0002

More Conditions Fewer Conditions

10-Day Weather Forecast

Almanac

Astronomy

Feb. 26, 2015 Rise Set
Actual Time
Civil Twilight
Nautical Twilight
Astronomical Twilight
Moon
Length of Visible Light
Length of Day
Tomorrow will be .
, % of the Moon is Illuminated

Today's Extremes

State Highs State Lows

Community

WunderPhotos

Upload Photos

1,800,526 photos uploaded!

WunderBlogs® & News

Nearby

Air Quality

  Air Quality AQ Index Pollutant
Not available.

Snow Depth

Station Depth Elevation

Earthquake Activity

City Distance Mag. Time & Date
Minimum magnitude displayed is 2.5.

Coastal Water Temperatures

Place Temperature

Nearby Weather Stations